createdAt,value
2023-02-08T00:01:22.916Z,-3.29
2023-02-08T00:03:51.528Z,-3.22
2023-02-08T00:06:21.322Z,-3.26
2023-02-08T00:08:49.215Z,-3.19
2023-02-08T00:11:17.136Z,-3.17
2023-02-08T00:13:45.106Z,-3.13
2023-02-08T00:16:15.489Z,-3.07
2023-02-08T00:18:43.753Z,-3.00
2023-02-08T00:21:15.271Z,-2.91
2023-02-08T00:23:44.809Z,-2.99
2023-02-08T00:26:13.012Z,-3.06
2023-02-08T00:28:40.914Z,-3.14
2023-02-08T00:31:09.282Z,-3.31
2023-02-08T00:33:37.490Z,-3.43
2023-02-08T00:36:08.827Z,-3.22
2023-02-08T00:38:37.789Z,-3.06
2023-02-08T00:41:07.493Z,-2.98
2023-02-08T00:43:35.836Z,-2.99
2023-02-08T00:46:04.346Z,-2.96
2023-02-08T00:48:33.177Z,-2.98
2023-02-08T00:51:04.872Z,-3.11
2023-02-08T00:53:35.855Z,-3.20
2023-02-08T00:56:03.898Z,-3.14
2023-02-08T00:58:33.556Z,-3.24
2023-02-08T01:01:02.088Z,-3.26
2023-02-08T01:03:30.412Z,-3.26
2023-02-08T01:06:02.099Z,-3.27
2023-02-08T01:08:30.165Z,-3.30
2023-02-08T01:11:05.655Z,-3.32
2023-02-08T01:13:35.664Z,-3.38
2023-02-08T01:16:10.190Z,-3.49
2023-02-08T01:18:38.695Z,-3.47
2023-02-08T01:21:09.456Z,-3.47
2023-02-08T01:23:38.463Z,-3.53
2023-02-08T01:26:07.911Z,-3.53
2023-02-08T01:28:37.580Z,-3.51
2023-02-08T01:31:08.547Z,-3.45
2023-02-08T01:33:38.199Z,-3.56
2023-02-08T01:36:08.425Z,-3.51
2023-02-08T01:38:37.779Z,-3.49
2023-02-08T01:41:06.930Z,-3.47
2023-02-08T01:44:00.643Z,-3.43
2023-02-08T01:46:30.567Z,-3.45
2023-02-08T01:49:04.088Z,-3.50
2023-02-08T01:51:38.591Z,-3.64
2023-02-08T01:54:11.980Z,-3.55
2023-02-08T01:56:45.762Z,-3.47
2023-02-08T01:59:22.238Z,-3.46
2023-02-08T02:01:54.928Z,-3.36
2023-02-08T02:04:23.725Z,-3.45
2023-02-08T02:06:57.032Z,-3.29
2023-02-08T02:09:35.519Z,-3.32
2023-02-08T02:12:04.072Z,-3.35
2023-02-08T02:14:32.148Z,-3.52
2023-02-08T02:17:02.639Z,-3.51
2023-02-08T02:19:41.605Z,-3.54
2023-02-08T02:22:55.956Z,-3.57
2023-02-08T02:26:00.476Z,-3.43
2023-02-08T02:29:15.946Z,-3.53
2023-02-08T02:32:20.930Z,-3.34
2023-02-08T02:34:58.523Z,-3.40
2023-02-08T02:37:45.683Z,-3.53
2023-02-08T02:40:27.210Z,-3.50
2023-02-08T02:43:28.853Z,-3.43
2023-02-08T02:46:06.712Z,-3.41
2023-02-08T02:48:48.272Z,-3.62
2023-02-08T02:51:27.203Z,-3.63
2023-02-08T02:54:03.970Z,-3.56
2023-02-08T02:56:38.022Z,-3.55
2023-02-08T02:59:12.087Z,-3.57
2023-02-08T03:01:43.023Z,-3.49
2023-02-08T03:04:17.823Z,-3.50
2023-02-08T03:07:06.715Z,-3.62
2023-02-08T03:10:05.215Z,-3.61
2023-02-08T03:12:49.702Z,-3.64
2023-02-08T03:15:29.799Z,-3.66
2023-02-08T03:18:13.977Z,-3.64
2023-02-08T03:20:54.696Z,-3.74
2023-02-08T03:23:29.574Z,-3.65
2023-02-08T03:26:08.684Z,-3.58
2023-02-08T03:28:47.886Z,-3.65
2023-02-08T03:31:26.003Z,-3.53
2023-02-08T03:33:59.722Z,-3.51
2023-02-08T03:36:36.110Z,-3.63
2023-02-08T03:39:12.388Z,-3.81
2023-02-08T03:41:45.607Z,-3.83
2023-02-08T03:44:21.792Z,-3.83
2023-02-08T03:46:56.474Z,-3.84
2023-02-08T03:49:32.108Z,-3.70
2023-02-08T03:52:05.548Z,-3.66
2023-02-08T03:54:41.609Z,-3.58
2023-02-08T03:57:17.701Z,-3.50
2023-02-08T03:59:55.343Z,-3.42
2023-02-08T04:02:30.178Z,-3.53
2023-02-08T04:04:59.670Z,-3.46
2023-02-08T04:07:28.937Z,-3.58
2023-02-08T04:09:56.666Z,-3.52
2023-02-08T04:12:24.746Z,-3.52
2023-02-08T04:14:52.720Z,-3.48
2023-02-08T04:17:20.597Z,-3.47
2023-02-08T04:19:48.527Z,-3.55
2023-02-08T04:22:16.461Z,-3.47
2023-02-08T04:24:45.765Z,-3.51
2023-02-08T04:27:13.463Z,-3.57
2023-02-08T04:29:41.908Z,-3.42
2023-02-08T04:32:11.651Z,-3.42
2023-02-08T04:34:39.713Z,-3.27
2023-02-08T04:37:09.291Z,-3.27
2023-02-08T04:39:37.157Z,-3.56
2023-02-08T04:42:06.679Z,-3.63
2023-02-08T04:44:34.633Z,-3.75
2023-02-08T04:47:02.663Z,-3.68
2023-02-08T04:49:30.609Z,-3.71
2023-02-08T04:51:58.557Z,-3.57
2023-02-08T04:54:26.522Z,-3.72
2023-02-08T04:56:54.509Z,-3.64
2023-02-08T04:59:23.856Z,-3.72
2023-02-08T05:01:51.740Z,-3.76
2023-02-08T05:04:19.805Z,-3.70
2023-02-08T05:06:48.554Z,-3.75
2023-02-08T05:09:16.485Z,-3.70
2023-02-08T05:11:44.405Z,-3.74
2023-02-08T05:14:12.429Z,-3.72
2023-02-08T05:16:41.767Z,-3.63
2023-02-08T05:19:11.872Z,-3.71
2023-02-08T05:21:39.809Z,-3.69
2023-02-08T05:24:12.425Z,-3.68
2023-02-08T05:26:40.989Z,-3.75
2023-02-08T05:29:09.154Z,-3.78
2023-02-08T05:31:37.499Z,-3.68
2023-02-08T05:34:06.882Z,-3.72
2023-02-08T05:36:34.581Z,-3.63
2023-02-08T05:39:02.480Z,-3.65
2023-02-08T05:41:30.446Z,-3.63
2023-02-08T05:43:58.440Z,-3.66
2023-02-08T05:46:26.365Z,-3.69
2023-02-08T05:48:54.382Z,-3.71
2023-02-08T05:51:23.706Z,-3.66
2023-02-08T05:53:51.414Z,-3.68
2023-02-08T05:56:19.523Z,-3.63
2023-02-08T05:58:47.417Z,-3.66
2023-02-08T06:01:15.656Z,-3.61
2023-02-08T06:03:43.763Z,-3.63
2023-02-08T06:06:11.966Z,-3.44
2023-02-08T06:08:41.738Z,-3.52
2023-02-08T06:11:09.808Z,-3.58
2023-02-08T06:13:38.946Z,-3.60
2023-02-08T06:16:08.356Z,-3.55
2023-02-08T06:18:36.104Z,-3.59
2023-02-08T06:21:04.688Z,-3.39
2023-02-08T06:23:32.872Z,-3.54
2023-02-08T06:26:02.478Z,-3.49
2023-02-08T06:28:30.535Z,-3.46
2023-02-08T06:30:58.511Z,-3.42
2023-02-08T06:33:26.423Z,-3.41
2023-02-08T06:35:54.730Z,-3.39
2023-02-08T06:38:22.833Z,-3.41
2023-02-08T06:40:51.428Z,-3.38
2023-02-08T06:43:20.731Z,-3.44
2023-02-08T06:45:48.865Z,-3.33
2023-02-08T06:48:17.101Z,-3.31
2023-02-08T06:50:45.045Z,-3.30
2023-02-08T06:53:12.944Z,-3.28
2023-02-08T06:55:40.950Z,-3.28
2023-02-08T06:58:09.801Z,-3.25
2023-02-08T07:00:39.628Z,-3.24
2023-02-08T07:03:07.875Z,-3.19
2023-02-08T07:05:36.103Z,-3.16
2023-02-08T07:08:04.723Z,-3.18
2023-02-08T07:10:32.825Z,-3.07
2023-02-08T07:13:00.727Z,-3.07
2023-02-08T07:15:30.718Z,-3.07
2023-02-08T07:18:00.067Z,-3.02
2023-02-08T07:20:27.828Z,-2.89
2023-02-08T07:22:55.903Z,-2.95
2023-02-08T07:25:23.851Z,-2.94
2023-02-08T07:27:52.084Z,-2.91
2023-02-08T07:30:20.371Z,-2.85
2023-02-08T07:32:48.353Z,-2.83
2023-02-08T07:35:17.649Z,-2.72
2023-02-08T07:37:45.517Z,-2.69
2023-02-08T07:40:13.539Z,-2.68
2023-02-08T07:42:41.513Z,-2.70
2023-02-08T07:45:09.989Z,-2.65
2023-02-08T07:47:37.971Z,-2.53
2023-02-08T07:50:06.828Z,-2.46
2023-02-08T07:52:36.150Z,-2.38
2023-02-08T07:55:04.082Z,-2.41
2023-02-08T07:57:32.060Z,-2.33
2023-02-08T07:59:59.961Z,-2.27
2023-02-08T08:02:27.929Z,-2.26
2023-02-08T08:04:55.888Z,-2.10
2023-02-08T08:07:23.839Z,-2.10
2023-02-08T08:09:53.148Z,-2.16
2023-02-08T08:12:21.498Z,-2.06
2023-02-08T08:14:49.458Z,-2.09
2023-02-08T08:17:17.672Z,-1.97
2023-02-08T08:19:45.740Z,-1.91
2023-02-08T08:22:13.706Z,-1.89
2023-02-08T08:24:41.643Z,-1.88
2023-02-08T08:27:11.186Z,-1.78
2023-02-08T08:29:40.042Z,-1.73
2023-02-08T08:32:11.493Z,-1.61
2023-02-08T08:34:39.757Z,-1.62
2023-02-08T08:37:07.704Z,-1.55
2023-02-08T08:39:37.038Z,-1.54
2023-02-08T08:42:05.753Z,-1.44
2023-02-08T08:44:34.958Z,-1.40
2023-02-08T08:47:03.061Z,-1.40
2023-02-08T08:49:30.970Z,-1.43
2023-02-08T08:51:58.932Z,-1.22
2023-02-08T08:54:26.910Z,-1.25
2023-02-08T08:56:54.750Z,-1.22
2023-02-08T08:59:22.752Z,-1.04
2023-02-08T09:01:52.267Z,-0.99
2023-02-08T09:04:22.600Z,-1.07
2023-02-08T09:06:50.986Z,-1.04
2023-02-08T09:09:19.565Z,-0.93
2023-02-08T09:11:48.001Z,-0.87
2023-02-08T09:14:16.634Z,-0.76
2023-02-08T09:16:47.913Z,-0.63
2023-02-08T09:19:18.215Z,-0.79
2023-02-08T09:21:46.603Z,-0.82
2023-02-08T09:24:14.878Z,-0.76
2023-02-08T09:26:42.963Z,-0.80
2023-02-08T09:29:10.885Z,-0.73
2023-02-08T09:31:39.492Z,-0.76
2023-02-08T09:34:08.566Z,-0.65
2023-02-08T09:36:42.057Z,-0.49
2023-02-08T09:39:14.591Z,-0.53
2023-02-08T09:42:09.876Z,-0.48
2023-02-08T09:44:52.868Z,-0.35
2023-02-08T09:47:29.779Z,-0.22
2023-02-08T09:50:04.475Z,-0.17
2023-02-08T09:52:42.324Z,-0.16
2023-02-08T09:55:26.062Z,-0.16
2023-02-08T09:57:58.415Z,-0.20
2023-02-08T10:00:36.534Z,-0.18
2023-02-08T10:03:06.728Z,-0.13
2023-02-08T10:05:35.717Z,-0.15
2023-02-08T10:08:09.962Z,-0.20
2023-02-08T10:10:54.622Z,-0.05
2023-02-08T10:13:56.894Z,0.03
2023-02-08T10:16:54.817Z,-0.02
2023-02-08T10:19:44.170Z,0.09
2023-02-08T10:22:35.092Z,0.05
2023-02-08T10:25:26.975Z,0.07
2023-02-08T10:28:44.332Z,0.24
2023-02-08T10:31:30.174Z,0.18
2023-02-08T10:34:07.479Z,0.36
2023-02-08T10:36:42.089Z,0.36
2023-02-08T10:39:18.974Z,0.30
2023-02-08T10:41:48.998Z,0.37
2023-02-08T10:44:28.440Z,0.39
2023-02-08T10:47:08.775Z,0.47
2023-02-08T10:49:46.002Z,0.57
2023-02-08T10:52:13.991Z,0.57
2023-02-08T10:54:41.922Z,0.70
2023-02-08T10:57:19.457Z,0.83
2023-02-08T10:59:52.209Z,0.70
2023-02-08T11:02:26.718Z,0.82
2023-02-08T11:05:03.448Z,0.96
2023-02-08T11:07:34.713Z,0.99
2023-02-08T11:10:25.463Z,0.99
2023-02-08T11:13:03.653Z,1.11
2023-02-08T11:15:40.092Z,0.96
2023-02-08T11:18:20.128Z,0.97
2023-02-08T11:20:52.120Z,1.12
2023-02-08T11:23:30.566Z,1.06
2023-02-08T11:26:18.737Z,1.23
2023-02-08T11:29:01.992Z,1.22
2023-02-08T11:31:32.124Z,1.23
2023-02-08T11:34:03.826Z,1.23
2023-02-08T11:36:36.356Z,1.27
2023-02-08T11:39:17.829Z,1.35
2023-02-08T11:41:48.260Z,1.56
2023-02-08T11:44:26.920Z,1.50
2023-02-08T11:46:58.805Z,1.31
2023-02-08T11:49:36.860Z,1.34
2023-02-08T11:52:07.766Z,1.43
2023-02-08T11:54:41.271Z,1.46
2023-02-08T11:57:20.174Z,1.31
2023-02-08T11:59:52.657Z,1.32
2023-02-08T12:02:37.395Z,1.44
2023-02-08T12:05:14.881Z,1.38
2023-02-08T12:08:04.496Z,1.39
2023-02-08T12:11:14.462Z,1.67
2023-02-08T12:14:16.780Z,1.56
2023-02-08T12:17:05.387Z,1.37
2023-02-08T12:20:10.672Z,1.44
2023-02-08T12:22:43.250Z,1.45
2023-02-08T12:25:30.107Z,1.55
2023-02-08T12:28:14.773Z,1.46
2023-02-08T12:30:54.810Z,1.41
2023-02-08T12:33:50.666Z,1.62
2023-02-08T12:37:16.364Z,1.60
2023-02-08T12:40:14.661Z,1.55
2023-02-08T12:43:01.158Z,1.52
2023-02-08T12:46:28.937Z,1.64
2023-02-08T12:49:33.060Z,1.76
2023-02-08T12:52:16.054Z,1.74
2023-02-08T12:54:52.580Z,1.69
2023-02-08T12:57:26.299Z,1.90
2023-02-08T13:00:00.302Z,1.79
2023-02-08T13:02:43.287Z,1.61
2023-02-08T13:05:23.080Z,1.60
2023-02-08T13:08:03.260Z,1.63
2023-02-08T13:10:37.470Z,1.64
2023-02-08T13:13:16.407Z,1.61
2023-02-08T13:15:53.356Z,1.59
2023-02-08T13:18:28.655Z,1.71
2023-02-08T13:21:04.137Z,1.63
2023-02-08T13:23:51.695Z,1.66
2023-02-08T13:26:27.918Z,1.62
2023-02-08T13:29:01.856Z,1.53
2023-02-08T13:31:38.924Z,1.61
2023-02-08T13:34:16.086Z,1.74
2023-02-08T13:36:55.708Z,1.64
2023-02-08T13:39:36.428Z,1.61
2023-02-08T13:42:07.724Z,1.77
2023-02-08T13:44:39.652Z,1.57
2023-02-08T13:47:23.389Z,1.58
2023-02-08T13:49:59.995Z,1.54
2023-02-08T13:52:55.191Z,1.63
2023-02-08T13:55:58.733Z,1.57
2023-02-08T13:59:05.353Z,1.58
2023-02-08T14:01:37.077Z,1.70
2023-02-08T14:04:38.039Z,1.77
2023-02-08T14:07:24.447Z,1.71
2023-02-08T14:10:10.997Z,1.73
2023-02-08T14:12:51.182Z,1.67
2023-02-08T14:15:40.948Z,1.63
2023-02-08T14:18:28.985Z,1.71
2023-02-08T14:21:06.663Z,1.53
2023-02-08T14:23:40.607Z,1.51
2023-02-08T14:26:24.019Z,1.49
2023-02-08T14:28:59.000Z,1.54
2023-02-08T14:31:41.019Z,1.77
2023-02-08T14:34:34.353Z,2.13
2023-02-08T14:37:27.656Z,1.90
2023-02-08T14:40:33.375Z,1.77
2023-02-08T14:43:05.952Z,1.66
2023-02-08T14:45:37.071Z,1.51
2023-02-08T14:48:20.951Z,1.56
2023-02-08T14:50:59.815Z,1.41
2023-02-08T14:53:43.682Z,1.33
2023-02-08T14:56:21.577Z,1.41
2023-02-08T14:58:56.923Z,1.36
2023-02-08T15:01:44.903Z,1.33
2023-02-08T15:04:18.169Z,1.28
2023-02-08T15:07:10.217Z,1.18
2023-02-08T15:09:41.596Z,1.23
2023-02-08T15:12:20.334Z,1.21
2023-02-08T15:14:50.615Z,1.15
2023-02-08T15:17:32.165Z,1.20
2023-02-08T15:20:01.610Z,1.08
2023-02-08T15:22:36.201Z,1.08
2023-02-08T15:25:23.191Z,1.06
2023-02-08T15:27:53.436Z,1.01
2023-02-08T15:30:34.388Z,0.87
2023-02-08T15:33:04.439Z,0.89
2023-02-08T15:35:36.103Z,0.83
2023-02-08T15:38:06.927Z,0.77
2023-02-08T15:40:36.520Z,0.73
2023-02-08T15:43:12.229Z,0.66
2023-02-08T15:45:41.662Z,0.52
2023-02-08T15:48:10.058Z,0.59
2023-02-08T15:50:38.182Z,0.56
2023-02-08T15:53:12.034Z,0.52
2023-02-08T15:55:50.313Z,0.47
2023-02-08T15:58:28.775Z,0.41
2023-02-08T16:01:01.640Z,0.29
2023-02-08T16:03:32.122Z,0.22
2023-02-08T16:06:04.433Z,0.18
2023-02-08T16:08:36.566Z,0.16
2023-02-08T16:11:12.132Z,0.12
2023-02-08T16:13:47.841Z,0.18
2023-02-08T16:16:21.897Z,0.19
2023-02-08T16:18:59.327Z,0.17
2023-02-08T16:21:35.073Z,0.05
2023-02-08T16:24:20.147Z,0.09
2023-02-08T16:26:57.365Z,0.07
2023-02-08T16:29:29.770Z,0.02
2023-02-08T16:32:03.951Z,0.10
2023-02-08T16:34:38.486Z,-0.03
2023-02-08T16:37:21.971Z,-0.08
2023-02-08T16:39:55.876Z,-0.02
2023-02-08T16:42:29.317Z,0.13
2023-02-08T16:45:18.490Z,0.00
2023-02-08T16:47:52.685Z,0.08
2023-02-08T16:50:23.958Z,-0.09
2023-02-08T16:52:56.239Z,-0.10
2023-02-08T16:58:01.008Z,-0.18
2023-02-08T17:00:30.888Z,-0.17
2023-02-08T17:03:01.339Z,-0.15
2023-02-08T17:05:32.457Z,-0.19
2023-02-08T17:08:01.212Z,-0.28
2023-02-08T17:10:31.999Z,-0.24
2023-02-08T17:13:18.614Z,-0.34
2023-02-08T17:15:49.636Z,-0.41
2023-02-08T17:18:19.297Z,-0.45
2023-02-08T17:20:47.996Z,-0.42
2023-02-08T17:23:17.400Z,-0.45
2023-02-08T17:25:46.092Z,-0.38
2023-02-08T17:28:19.028Z,-0.43
2023-02-08T17:30:48.600Z,-0.47
2023-02-08T17:33:21.567Z,-0.48
2023-02-08T17:35:54.038Z,-0.43
2023-02-08T17:38:22.689Z,-0.47
2023-02-08T17:40:50.951Z,-0.52
2023-02-08T17:43:24.523Z,-0.50
2023-02-08T17:45:58.048Z,-0.58
2023-02-08T17:48:35.656Z,-0.60
2023-02-08T17:51:16.956Z,-0.60
2023-02-08T17:53:50.067Z,-0.67
2023-02-08T17:56:28.753Z,-0.62
2023-02-08T17:59:02.143Z,-0.58
2023-02-08T18:01:38.887Z,-0.62
2023-02-08T18:04:15.026Z,-0.73
2023-02-08T18:06:47.454Z,-0.69
2023-02-08T18:09:20.950Z,-0.75
2023-02-08T18:11:57.533Z,-0.76
2023-02-08T18:14:32.766Z,-0.78
2023-02-08T18:17:06.221Z,-0.86
2023-02-08T18:19:41.287Z,-0.81
2023-02-08T18:22:17.712Z,-0.77
2023-02-08T18:24:56.198Z,-0.75
2023-02-08T18:27:31.173Z,-0.76
2023-02-08T18:30:04.503Z,-0.78
2023-02-08T18:32:37.626Z,-0.83
2023-02-08T18:35:16.165Z,-0.79
2023-02-08T18:37:50.950Z,-0.79
2023-02-08T18:40:24.047Z,-0.76
2023-02-08T18:43:03.517Z,-0.74
2023-02-08T18:45:40.420Z,-0.81
2023-02-08T18:48:16.040Z,-0.85
2023-02-08T18:50:59.016Z,-0.95
2023-02-08T18:53:33.600Z,-0.92
2023-02-08T18:56:11.389Z,-0.97
2023-02-08T18:58:45.702Z,-1.04
2023-02-08T19:01:24.848Z,-0.92
2023-02-08T19:03:59.472Z,-0.90
2023-02-08T19:06:34.596Z,-1.02
2023-02-08T19:09:14.005Z,-1.00
2023-02-08T19:11:48.116Z,-1.05
2023-02-08T19:14:18.856Z,-0.96
2023-02-08T19:16:53.345Z,-0.91
2023-02-08T19:19:26.480Z,-0.97
2023-02-08T19:22:02.513Z,-0.92
2023-02-08T19:24:39.622Z,-1.02
2023-02-08T19:27:13.102Z,-1.00
2023-02-08T19:29:41.297Z,-1.12
2023-02-08T19:32:12.874Z,-1.11
2023-02-08T19:34:43.920Z,-1.11
2023-02-08T19:37:21.177Z,-1.04
2023-02-08T19:39:53.192Z,-1.07
2023-02-08T19:42:22.292Z,-1.12
2023-02-08T19:44:50.246Z,-1.03
2023-02-08T19:47:25.504Z,-1.16
2023-02-08T19:49:57.273Z,-1.24
2023-02-08T19:52:31.485Z,-1.28
2023-02-08T19:55:02.452Z,-1.29
2023-02-08T19:57:30.467Z,-1.34
2023-02-08T19:59:58.574Z,-1.23
2023-02-08T20:02:27.553Z,-1.37
2023-02-08T20:04:55.554Z,-1.41
2023-02-08T20:07:27.544Z,-1.42
2023-02-08T20:09:55.433Z,-1.41
2023-02-08T20:12:23.362Z,-1.50
2023-02-08T20:14:51.424Z,-1.60
2023-02-08T20:17:19.336Z,-1.60
2023-02-08T20:19:47.283Z,-1.53
2023-02-08T20:22:15.201Z,-1.40
2023-02-08T20:24:44.447Z,-1.47
2023-02-08T20:27:12.335Z,-1.52
2023-02-08T20:29:40.251Z,-1.54
2023-02-08T20:32:09.242Z,-1.58
2023-02-08T20:34:39.266Z,-1.59
2023-02-08T20:37:08.830Z,-1.56
2023-02-08T20:39:38.162Z,-1.52
2023-02-08T20:42:07.755Z,-1.65
2023-02-08T20:44:35.739Z,-1.58
2023-02-08T20:47:03.774Z,-1.61
2023-02-08T20:49:33.202Z,-1.62
2023-02-08T20:52:01.377Z,-1.54
2023-02-08T20:54:29.548Z,-1.57
2023-02-08T20:56:58.120Z,-1.64
2023-02-08T20:59:27.405Z,-1.63
2023-02-08T21:01:56.885Z,-1.62
2023-02-08T21:04:24.806Z,-1.63
2023-02-08T21:06:53.662Z,-1.60
2023-02-08T21:09:22.286Z,-1.68
2023-02-08T21:11:51.779Z,-1.70
2023-02-08T21:14:23.436Z,-1.64
2023-02-08T21:16:58.425Z,-1.70
2023-02-08T21:19:28.974Z,-1.74
2023-02-08T21:22:00.106Z,-1.74
2023-02-08T21:24:30.711Z,-1.71
2023-02-08T21:26:59.018Z,-1.65
2023-02-08T21:29:29.106Z,-1.68
2023-02-08T21:31:58.769Z,-1.66
2023-02-08T21:34:27.079Z,-1.77
2023-02-08T21:36:54.937Z,-1.82
2023-02-08T21:39:24.106Z,-1.87
2023-02-08T21:41:55.332Z,-1.86
2023-02-08T21:44:23.434Z,-1.78
2023-02-08T21:46:51.423Z,-1.85
2023-02-08T21:49:38.226Z,-1.92
2023-02-08T21:52:24.033Z,-1.97
2023-02-08T21:54:53.634Z,-1.99
2023-02-08T21:57:24.229Z,-1.92
2023-02-08T21:59:55.733Z,-1.93
2023-02-08T22:02:27.665Z,-1.97
2023-02-08T22:05:17.951Z,-1.97
2023-02-08T22:07:49.170Z,-2.00
2023-02-08T22:10:21.461Z,-2.08
2023-02-08T22:12:49.970Z,-2.15
2023-02-08T22:15:20.419Z,-2.14
2023-02-08T22:17:48.425Z,-2.16
2023-02-08T22:20:17.852Z,-2.23
2023-02-08T22:22:46.284Z,-2.10
2023-02-08T22:25:14.892Z,-2.11
2023-02-08T22:27:42.850Z,-2.09
2023-02-08T22:30:17.157Z,-2.15
2023-02-08T22:32:48.887Z,-2.15
2023-02-08T22:35:19.539Z,-2.16
2023-02-08T22:37:47.510Z,-2.22
2023-02-08T22:40:15.451Z,-2.22
2023-02-08T22:42:43.907Z,-2.23
2023-02-08T22:45:12.752Z,-2.27
2023-02-08T22:47:41.176Z,-2.32
2023-02-08T22:50:11.026Z,-2.27
2023-02-08T22:52:40.365Z,-2.34
2023-02-08T22:55:08.337Z,-2.33
2023-02-08T22:57:37.987Z,-2.23
2023-02-08T23:00:08.892Z,-2.35
2023-02-08T23:02:36.867Z,-2.36
2023-02-08T23:05:05.073Z,-2.43
2023-02-08T23:07:33.704Z,-2.34
2023-02-08T23:10:03.011Z,-2.42
2023-02-08T23:12:31.624Z,-2.54
2023-02-08T23:14:59.550Z,-2.50
2023-02-08T23:17:27.867Z,-2.42
2023-02-08T23:19:55.808Z,-2.47
2023-02-08T23:22:23.721Z,-2.43
2023-02-08T23:24:51.647Z,-2.54
2023-02-08T23:27:20.901Z,-2.57
2023-02-08T23:29:48.898Z,-2.54
2023-02-08T23:32:16.855Z,-2.62
2023-02-08T23:34:44.827Z,-2.59
2023-02-08T23:37:12.802Z,-2.62
2023-02-08T23:39:40.688Z,-2.62
2023-02-08T23:42:25.238Z,-2.59
2023-02-08T23:44:55.746Z,-2.64
2023-02-08T23:47:25.717Z,-2.55
2023-02-08T23:49:54.414Z,-2.66
2023-02-08T23:52:23.246Z,-2.70
2023-02-08T23:54:51.477Z,-2.64
2023-02-08T23:57:19.663Z,-2.67
2023-02-08T23:59:47.690Z,-2.68
